Latest Weather Observations for Mandora

IDW60801

Issued at 3:35 pm WST Wednesday 23 April 2014 (issued every 30 minutes, with the page automatically refreshed every 10 minutes)

About weather observations | Map of weather stations | Latest weather observations for WA | Other Formats
Station Details ID: 004019 Name: MANDORA Lat: -19.74 Lon: 120.84 Height: 7.5 m
Data from the previous 72 hours. | See also: Recent months at Mandora
Date/Time
WST
Temp
°C
App
Temp
°C
Dew
Point
Rel
Hum
%
Delta-T
°C
Wind Press
QNH
hPa
Press
MSL
hPa
Rain
since 9 am
mm
Dir
 
Spd
km/h
Gust
km/h
Spd
kts
Gust
kts
23/03:30pm 33.8 - - - - NW 19 26 10 14 1007.8 - 0.0
23/03:00pm 34.0 - - - - NNW 19 28 10 15 1008.0 1007.9 0.0
23/02:30pm 34.3 - - - - NNW 19 28 10 15 1008.0 - 0.0
23/02:00pm 35.1 - - - - N 20 30 11 16 1008.2 - 0.0
23/01:30pm 34.7 - - - - N 20 28 11 15 1008.5 - 0.0
23/01:00pm 35.6 - - - - N 20 30 11 16 1008.8 - 0.0
23/12:30pm 35.9 - - - - N 20 28 11 15 1009.2 - 0.0
23/12:00pm 36.0 - - - - N 20 30 11 16 1009.8 1009.7 0.0
23/11:30am 36.9 - - - - NNE 19 28 10 15 1010.4 - 0.0
23/11:00am 36.2 - - - - NNE 19 28 10 15 1010.9 - 0.0
23/10:30am 35.5 - - - - NE 20 32 11 17 1011.4 - 0.0
23/10:00am 34.8 - - - - ENE 19 30 10 16 1011.8 - 0.0
23/09:30am 32.9 - - - - E 19 26 10 14 1012.2 - 0.0
23/09:00am 31.5 - - - - E 19 30 10 16 1012.3 1012.2 0.0
23/08:30am 29.8 - - - - E 15 26 8 14 1012.3 - 0.0
23/08:00am 27.8 - - - - ESE 15 24 8 13 1012.1 - 0.0
23/07:30am 24.2 - - - - ESE 13 20 7 11 1012.0 - 0.0
23/07:00am 20.8 - - - - SE 11 15 6 8 1011.6 - 0.0
23/06:30am 16.6 - - - - ESE 9 11 5 6 1011.3 - 0.0
23/06:00am 16.7 - - - - SE 7 9 4 5 1011.0 1010.9 0.0
23/05:30am 17.5 - - - - SE 9 11 5 6 1010.9 - 0.0
23/05:00am 18.4 - - - - S 9 11 5 6 1010.8 - 0.0
23/04:30am 20.1 - - - - SSE 9 13 5 7 1010.8 - 0.0
23/04:00am 19.2 - - - - S 11 15 6 8 1010.7 - 0.0
23/03:30am 20.3 - - - - SSE 11 13 6 7 1010.9 - 0.0
23/03:00am 20.5 - - - - S 13 17 7 9 1010.6 1010.5 0.0
23/02:30am 21.2 - - - - S 13 17 7 9 1010.7 - 0.0
23/02:00am 20.2 - - - - SSW 11 13 6 7 1010.9 - 0.0
23/01:30am 19.9 - - - - SSW 9 11 5 6 1011.3 - 0.0
23/01:00am 21.4 - - - - S 11 13 6 7 1011.7 - 0.0
23/12:30am 21.7 - - - - S 13 15 7 8 1011.9 - 0.0
23/12:00am 21.2 - - - - SSW 13 15 7 8 1012.0 1011.9 0.0
 
Date/Time
WST
Temp
°C
App
Temp
°C
Dew
Point
Rel
Hum
%
Delta-T
°C
Wind Press
QNH
hPa
Press
MSL
hPa
Rain
since 9 am
mm
Dir
 
Spd
km/h
Gust
km/h
Spd
kts
Gust
kts
22/11:30pm 19.8 - - - - SSW 11 13 6 7 1012.1 - 0.0
22/11:00pm 21.0 - - - - SW 9 9 5 5 1012.2 - 0.0
22/10:30pm 22.4 - - - - SSW 11 13 6 7 1012.2 - 0.0
22/10:00pm 23.4 - - - - SW 11 15 6 8 1012.1 - 0.0
22/09:30pm 24.1 - - - - SW 13 17 7 9 1012.0 - 0.0
22/09:00pm 23.3 - - - - SW 11 15 6 8 1011.9 1011.8 0.0
22/08:30pm 23.5 - - - - SW 11 15 6 8 1011.7 - 0.0
22/08:00pm 23.7 - - - - WSW 11 13 6 7 1011.5 - 0.0
22/07:30pm 24.0 - - - - SW 13 15 7 8 1011.4 - 0.0
22/07:00pm 24.7 - - - - WSW 11 13 6 7 1011.1 - 0.0
22/06:30pm 25.2 - - - - W 11 15 6 8 1010.8 - 0.0
22/06:00pm 26.9 - - - - W 9 13 5 7 1010.6 1010.5 0.0
22/05:30pm 28.9 - - - - WNW 11 17 6 9 1010.3 - 0.0
22/05:00pm 30.6 - - - - WNW 15 20 8 11 1010.0 - 0.0
22/04:30pm 32.2 - - - - W 17 24 9 13 1009.8 - 0.0
22/04:00pm 33.2 - - - - WNW 15 22 8 12 1009.5 - 0.0
22/03:30pm 33.9 - - - - NW 17 22 9 12 1009.3 - 0.0
22/03:00pm 34.3 - - - - NW 19 26 10 14 1009.3 1009.2 0.0
22/02:30pm 34.6 - - - - WNW 19 28 10 15 1009.4 - 0.0
22/02:00pm 34.0 - - - - NW 19 26 10 14 1009.7 - 0.0
22/01:30pm 34.5 - - - - NW 19 28 10 15 1009.8 - 0.0
22/01:00pm 34.7 - - - - NW 19 28 10 15 1010.0 - 0.0
22/12:30pm 35.8 - - - - NNW 17 22 9 12 1010.3 - 0.0
22/12:00pm 35.7 - - - - NNW 13 20 7 11 1010.8 1010.7 0.0
22/11:30am 34.9 - - - - NNW 11 20 6 11 1011.4 - 0.0
22/11:00am 35.7 - - - - NE 11 17 6 9 1012.0 - 0.0
22/10:30am 35.2 - - - - E 7 15 4 8 1012.6 - 0.0
22/10:00am 33.2 - - - - ENE 6 11 3 6 1013.0 - 0.0
22/09:30am 31.7 - - - - ENE 7 11 4 6 1013.4 - 0.0
22/09:00am 29.8 - - - - NE 9 13 5 7 1013.4 1013.3 0.0
22/08:30am 28.9 - - - - ENE 11 17 6 9 1013.4 - 0.0
22/08:00am 26.5 - - - - SSE 7 11 4 6 1013.0 - 0.0
22/07:54am 25.4 - - - - SSE 7 11 4 6 1013.0 - 0.0
22/07:30am 20.4 - - - - SE 4 7 2 4 1013.0 - 0.0
22/07:00am 15.7 - - - - CALM 0 0 0 0 1012.6 - 0.0
22/06:30am 13.5 - - - - E 6 7 3 4 1012.5 - 0.0
22/06:00am 14.2 - - - - E 7 9 4 5 1012.2 1012.1 0.0
22/05:30am 14.0 - - - - E 9 13 5 7 1012.1 - 0.0
22/05:00am 13.3 - - - - SSE 7 9 4 5 1011.7 - 0.0
22/04:30am 14.0 - - - - SSE 9 11 5 6 1011.5 - 0.0
22/04:00am 13.5 - - - - SSE 4 6 2 3 1011.4 - 0.0
22/03:30am 13.9 - - - - ESE 7 9 4 5 1011.4 - 0.0
22/03:00am 14.2 - - - - E 2 7 1 4 1011.4 1011.3 0.0
22/02:30am 14.9 - - - - SSE 7 9 4 5 1011.4 - 0.0
22/02:00am 14.8 - - - - CALM 0 0 0 0 1011.4 - 0.0
22/01:30am 15.4 - - - - SW 2 6 1 3 1011.6 - 0.0
22/01:00am 15.9 - - - - SW 6 7 3 4 1011.9 - 0.0
22/12:30am 16.7 - - - - SSW 9 11 5 6 1012.1 - 0.0
22/12:00am 17.3 - - - - S 7 9 4 5 1012.4 1012.3 0.0
 
Date/Time
WST
Temp
°C
App
Temp
°C
Dew
Point
Rel
Hum
%
Delta-T
°C
Wind Press
QNH
hPa
Press
MSL
hPa
Rain
since 9 am
mm
Dir
 
Spd
km/h
Gust
km/h
Spd
kts
Gust
kts
21/11:30pm 17.8 - - - - SSW 9 9 5 5 1012.5 - 0.0
21/11:00pm 19.5 - - - - S 9 9 5 5 1012.6 - 0.0
21/10:30pm 21.2 - - - - S 11 13 6 7 1012.7 - 0.0
21/10:00pm 20.3 - - - - SW 11 15 6 8 1012.6 - 0.0
21/09:30pm 21.2 - - - - SW 11 13 6 7 1012.5 - 0.0
21/09:00pm 21.9 - - - - SW 13 13 7 7 1012.4 1012.3 0.0
21/08:30pm 22.4 - - - - SW 13 15 7 8 1012.3 - 0.0
21/08:00pm 23.2 - - - - SW 11 13 6 7 1012.0 - 0.0
21/07:30pm 23.8 - - - - WSW 11 13 6 7 1011.5 - 0.0
21/07:00pm 24.5 - - - - WSW 9 11 5 6 1011.2 - 0.0
21/06:30pm 26.0 - - - - WSW 13 15 7 8 1010.8 - 0.0
21/06:00pm 27.4 - - - - W 9 13 5 7 1010.5 1010.4 0.0
21/05:30pm 29.4 - - - - W 11 13 6 7 1010.3 - 0.0
21/05:00pm 31.7 - - - - NW 11 17 6 9 1010.0 - 0.0
21/04:30pm 33.6 - - - - NW 15 19 8 10 1009.7 - 0.0
21/04:00pm 34.3 - - - - NNW 17 24 9 13 1009.6 - 0.0
21/03:30pm 35.5 - - - - NNW 19 26 10 14 1009.4 - 0.0
21/03:00pm 35.6 - - - - NNW 19 28 10 15 1009.3 1009.2 0.0
21/02:30pm 35.8 - - - - NNW 17 28 9 15 1009.4 - 0.0
21/02:00pm 36.7 - - - - NW 15 24 8 13 1009.5 - 0.0
21/01:30pm 37.3 - - - - SSE 13 19 7 10 1009.4 - 0.0
21/01:00pm 36.9 - - - - S 13 24 7 13 1009.6 - 0.0
21/12:30pm 37.2 - - - - NNE 6 15 3 8 1010.0 - 0.0
21/12:00pm 36.5 - - - - ENE 6 11 3 6 1010.6 1010.5 0.0
21/11:30am 36.0 - - - - SSW 7 15 4 8 1011.1 - 0.0
21/11:00am 34.8 - - - - S 11 22 6 12 1011.6 - 0.0
21/10:30am 34.0 - - - - SSE 13 22 7 12 1011.9 - 0.0
21/10:00am 33.2 - - - - SSE 11 19 6 10 1012.3 - 0.0
21/09:30am 31.6 - - - - S 9 17 5 9 1012.6 - 0.0
21/09:00am 29.9 - - - - SE 9 15 5 8 1012.6 1012.5 0.0
21/08:30am 28.3 - - - - E 11 15 6 8 1012.5 - 0.0
21/08:00am 24.2 - - - - ESE 7 11 4 6 1012.7 - 0.0
21/07:30am 20.3 - - - - ESE 7 11 4 6 1012.6 - 0.0
21/07:00am 15.7 - - - - E 6 7 3 4 1012.5 - 0.0
21/06:30am 13.0 - - - - NE 7 9 4 5 1012.1 - 0.0
21/06:00am 13.1 - - - - ENE 9 11 5 6 1011.8 1011.7 0.0
21/05:30am 13.0 - - - - E 7 9 4 5 1011.5 - 0.0
21/05:00am 13.7 - - - - ENE 6 6 3 3 1011.0 - 0.0
21/04:30am 15.4 - - - - ESE 9 13 5 7 1010.8 - 0.0
21/04:00am 14.8 - - - - ESE 2 7 1 4 1010.6 - 0.0
21/03:30am 15.7 - - - - S 9 11 5 6 1010.4 - 0.0
21/03:00am 15.7 - - - - S 9 11 5 6 1010.4 1010.3 0.0
21/02:30am 16.3 - - - - S 9 11 5 6 1010.2 - 0.0
21/02:00am 18.9 - - - - S 9 9 5 5 1010.4 - 0.0
21/01:30am 19.7 - - - - SSE 9 13 5 7 1010.6 - 0.0
21/01:00am 20.4 - - - - S 13 17 7 9 1010.7 - 0.0
21/12:30am 20.4 - - - - S 13 17 7 9 1010.8 - 0.0
21/12:00am 19.8 - - - - S 11 13 6 7 1010.9 1010.8 0.0
 
Date/Time
WST
Temp
°C
App
Temp
°C
Dew
Point
Rel
Hum
%
Delta-T
°C
Wind Press
QNH
hPa
Press
MSL
hPa
Rain
since 9 am
mm
Dir
 
Spd
km/h
Gust
km/h
Spd
kts
Gust
kts
20/11:30pm 20.0 - - - - S 11 15 6 8 1010.7 - 0.0
20/11:00pm 20.0 - - - - S 11 13 6 7 1010.8 - 0.0
20/10:30pm 19.9 - - - - S 9 13 5 7 1010.8 - 0.0
20/10:00pm 20.5 - - - - S 9 11 5 6 1010.9 - 0.0
20/09:30pm 20.6 - - - - S 9 9 5 5 1010.8 - 0.0
20/09:00pm 22.0 - - - - S 9 11 5 6 1010.8 1010.7 0.0
20/08:30pm 22.2 - - - - SW 9 11 5 6 1010.6 - 0.0
20/08:00pm 22.4 - - - - WSW 9 11 5 6 1010.5 - 0.0
20/07:30pm 22.3 - - - - WSW 7 9 4 5 1010.1 - 0.0
20/07:00pm 23.8 - - - - WSW 9 11 5 6 1009.9 - 0.0
20/06:30pm 25.0 - - - - WSW 7 9 4 5 1009.7 - 0.0
20/06:00pm 26.9 - - - - WNW 9 11 5 6 1009.5 1009.4 0.0
20/05:30pm 29.5 - - - - WNW 9 13 5 7 1009.2 - 0.0
20/05:00pm 31.5 - - - - NW 13 17 7 9 1009.1 - 0.0
20/04:30pm 32.9 - - - - NNW 15 19 8 10 1008.9 - 0.0
20/04:00pm 33.7 - - - - NNW 17 22 9 12 1008.9 - 0.0

Other Formats:

Comma delimited format used in spreadsheet applications
http://www.bom.gov.au/fwo/IDW60801/IDW60801.94200.axf

JavaScript Object Notation format (JSON) in row-major order
http://www.bom.gov.au/fwo/IDW60801/IDW60801.94200.json